Terminal Aerodrome Forecast
Issued by NWS Blacksburg, VA

Home | Current Version | Previous Version | Text Only | Print | Product List | Glossary On
Versions: 1 2 3 4 5 6 7 8 9 10 11 12 13 14 15 16 17 18 19 20 21 22 23 24 25 26 27 28 29 30 31 32 33 34 35 36 37 38 39 40 41 42 43 44 45 46 47 48 49 50
000
FTUS41 KRNK 152335
TAFBLF
TAF
KBLF 152335Z 1600/1624 27003KT P6SM SCT013 BKN021
     FM160230 25005KT P6SM SCT020 BKN200
     FM160800 29006KT 5SM BR BKN045
     FM161300 28005KT P6SM OVC025
     FM162000 30007KT P6SM BKN035=

USA.gov is the U.S. government's official web portal to all federal, state and local government web resources and services.